createdAt,value
2018-05-15T12:58:01.889Z,29.08
2018-05-15T12:59:01.807Z,29.18
2018-05-15T13:00:55.132Z,28.70
2018-05-15T13:01:55.039Z,29.29
2018-05-15T13:03:49.361Z,29.78
2018-05-15T13:04:49.279Z,30.25
2018-05-15T13:06:42.631Z,30.35
2018-05-15T13:07:42.531Z,30.52
2018-05-15T13:09:37.448Z,31.11
2018-05-15T13:10:36.759Z,31.11
2018-05-15T13:12:31.075Z,31.60
2018-05-15T13:13:30.993Z,31.30
2018-05-15T13:15:25.305Z,31.50
2018-05-15T13:16:25.227Z,31.40
2018-05-15T13:18:19.574Z,31.30
2018-05-15T13:19:19.453Z,31.70
2018-05-15T13:21:13.879Z,31.68
2018-05-15T13:22:13.685Z,31.60
2018-05-15T13:24:08.018Z,31.30
2018-05-15T13:25:07.916Z,31.40
2018-05-15T13:27:02.248Z,31.98
2018-05-15T13:28:02.161Z,31.88
2018-05-15T13:29:56.607Z,31.51
2018-05-15T13:30:56.386Z,31.22
2018-05-15T13:32:49.706Z,31.71
2018-05-15T13:33:49.629Z,32.20
2018-05-15T13:35:42.960Z,31.81
2018-05-15T13:36:42.883Z,31.90
2018-05-15T13:38:36.219Z,31.81
2018-05-15T13:39:36.123Z,32.20
2018-05-15T13:41:30.564Z,31.61
2018-05-15T13:42:30.366Z,31.61
2018-05-15T13:44:24.678Z,32.20
2018-05-15T13:45:24.578Z,32.21
2018-05-15T13:47:18.915Z,31.73
2018-05-15T13:48:18.818Z,32.10
2018-05-15T13:50:13.142Z,32.49
2018-05-15T13:51:13.048Z,32.29
2018-05-15T13:53:06.387Z,32.76
2018-05-15T13:54:06.298Z,32.94
2018-05-15T13:55:59.626Z,32.94
2018-05-15T13:56:59.547Z,32.84
2018-05-15T13:58:52.870Z,33.14
2018-05-15T13:59:52.786Z,33.14
2018-05-15T14:01:46.109Z,33.70
2018-05-15T14:02:46.032Z,33.99
2018-05-15T14:04:40.352Z,33.69
2018-05-15T14:05:40.260Z,33.02
2018-05-15T14:07:34.580Z,33.22
2018-05-15T14:08:34.495Z,33.04
2018-05-15T14:10:27.820Z,32.75
2018-05-15T14:11:27.736Z,32.65
2018-05-15T14:13:22.192Z,33.51
2018-05-15T14:14:21.971Z,33.78
2018-05-15T14:16:15.320Z,34.16
2018-05-15T14:17:15.260Z,34.54
2018-05-15T14:18:15.170Z,34.33
2018-05-15T14:19:15.162Z,34.23
2018-05-15T14:20:15.086Z,34.23
2018-05-15T14:21:15.020Z,34.72
2018-05-15T14:22:14.958Z,34.61
2018-05-15T14:23:14.910Z,34.89
2018-05-15T14:24:14.876Z,35.36
2018-05-15T14:25:14.806Z,35.66
2018-05-15T14:26:14.779Z,36.02
2018-05-15T14:27:14.692Z,35.93
2018-05-15T14:28:14.639Z,36.68
2018-05-15T14:29:14.592Z,36.66
2018-05-15T14:30:14.534Z,36.96
2018-05-15T14:31:14.519Z,37.05
2018-05-15T14:32:14.427Z,37.44
2018-05-15T14:33:14.368Z,37.24
2018-05-15T14:34:14.326Z,37.54
2018-05-15T14:35:14.266Z,37.54
2018-05-15T14:36:14.230Z,37.63
2018-05-15T14:37:21.827Z,37.81
2018-05-15T14:39:17.099Z,37.70
2018-05-15T14:40:16.045Z,37.88
2018-05-15T14:42:02.695Z,37.60
2018-05-15T14:43:03.319Z,37.60
2018-05-15T14:45:04.596Z,37.70
2018-05-15T14:46:05.648Z,37.96
2018-05-15T14:48:00.213Z,37.88
2018-05-15T14:48:51.078Z,37.50
2018-05-15T14:50:45.402Z,37.70
2018-05-15T14:51:45.301Z,37.96
2018-05-15T14:53:39.637Z,39.11
2018-05-15T14:54:39.541Z,39.59
2018-05-15T14:56:32.852Z,43.48
2018-05-15T14:57:32.748Z,45.87
2018-05-15T14:59:27.061Z,50.06
2018-05-15T15:00:26.973Z,51.60
2018-05-15T15:02:21.271Z,53.23
2018-05-15T15:03:21.217Z,55.16
2018-05-15T15:05:14.514Z,56.03
2018-05-15T15:06:14.419Z,56.90
2018-05-15T15:08:07.755Z,57.57
2018-05-15T15:09:07.642Z,57.76
2018-05-15T15:11:01.989Z,58.31
2018-05-15T15:12:01.864Z,58.98
2018-05-15T15:13:01.806Z,60.24
2018-05-15T15:14:01.757Z,60.91
2018-05-15T15:15:01.698Z,60.72
2018-05-15T15:16:01.647Z,60.88
2018-05-15T15:17:01.588Z,62.32
2018-05-15T15:18:01.521Z,62.99
2018-05-15T15:19:01.470Z,63.83
2018-05-15T15:20:01.410Z,65.14
2018-05-15T15:21:01.348Z,65.53
2018-05-15T15:22:01.293Z,66.30
2018-05-15T15:23:01.234Z,67.25
2018-05-15T15:24:01.178Z,67.93
2018-05-15T15:25:01.119Z,68.51
2018-05-15T15:26:01.061Z,69.24
2018-05-15T15:27:00.999Z,69.81
2018-05-15T15:28:00.946Z,70.10
2018-05-15T15:29:00.884Z,70.58
2018-05-15T15:30:00.827Z,70.68
2018-05-15T15:31:00.769Z,71.29
2018-05-15T15:32:00.710Z,71.10
2018-05-15T15:33:00.650Z,71.55
2018-05-15T15:34:00.592Z,71.16
2018-05-15T15:35:00.535Z,70.97
2018-05-15T15:36:00.484Z,71.16
2018-05-15T15:37:00.417Z,71.16
2018-05-15T15:38:00.351Z,71.16
2018-05-15T15:39:00.336Z,71.16
2018-05-15T15:40:00.237Z,71.16
2018-05-15T15:41:00.177Z,72.02
2018-05-15T15:42:00.122Z,71.93
2018-05-15T15:43:00.066Z,71.67
2018-05-15T15:44:00.004Z,71.77
2018-05-15T15:44:59.940Z,71.67
2018-05-15T15:45:59.883Z,72.54
2018-05-15T15:46:59.825Z,72.54
2018-05-15T15:47:59.765Z,72.92
2018-05-15T15:48:59.714Z,72.34
2018-05-15T15:49:59.644Z,72.44
2018-05-15T15:50:59.585Z,72.38
2018-05-15T15:51:59.529Z,72.38
2018-05-15T15:52:59.468Z,72.64
2018-05-15T15:53:59.406Z,72.54
2018-05-15T15:54:59.351Z,73.31
2018-05-15T15:55:59.383Z,73.21
2018-05-15T15:56:59.228Z,73.46
2018-05-15T15:57:59.170Z,73.85
2018-05-15T15:58:59.115Z,73.66
2018-05-15T15:59:59.055Z,73.75
2018-05-15T16:00:58.992Z,73.37
2018-05-15T16:01:58.932Z,73.75
2018-05-15T16:02:58.875Z,74.13
2018-05-15T16:03:58.831Z,73.88
2018-05-15T16:04:58.760Z,73.98
2018-05-15T16:05:58.697Z,73.50
2018-05-15T16:06:58.638Z,73.73
2018-05-15T16:07:58.577Z,73.73
2018-05-15T16:08:58.528Z,73.88
2018-05-15T16:09:58.554Z,75.13
2018-05-15T16:10:58.402Z,75.10
2018-05-15T16:11:58.345Z,75.87
2018-05-15T16:12:58.279Z,75.67
2018-05-15T16:13:58.220Z,76.25
2018-05-15T16:14:58.162Z,76.02
2018-05-15T16:15:58.112Z,76.31
2018-05-15T16:16:58.046Z,76.50
2018-05-15T16:17:57.977Z,76.69
2018-05-15T16:18:57.922Z,76.59
2018-05-15T16:19:57.861Z,76.40
2018-05-15T16:20:57.804Z,77.17
2018-05-15T16:21:57.746Z,76.73
2018-05-15T16:22:57.691Z,76.06
2018-05-15T16:23:57.632Z,75.77
2018-05-15T16:24:57.567Z,76.06
2018-05-15T16:25:57.507Z,76.09
2018-05-15T16:26:57.452Z,75.62
2018-05-15T16:27:57.544Z,75.62
2018-05-15T16:28:57.325Z,75.81
2018-05-15T16:29:57.269Z,75.27
2018-05-15T16:30:57.220Z,75.46
2018-05-15T16:31:57.144Z,74.69
2018-05-15T16:32:57.092Z,74.79
2018-05-15T16:33:57.047Z,74.46
2018-05-15T16:34:56.971Z,74.69
2018-05-15T16:35:56.916Z,74.40
2018-05-15T16:36:56.848Z,74.60
2018-05-15T16:37:56.787Z,74.02
2018-05-15T16:38:56.728Z,73.54
2018-05-15T16:39:56.670Z,74.02
2018-05-15T16:40:56.607Z,73.73
2018-05-15T16:41:56.558Z,73.25
2018-05-15T16:42:56.491Z,72.77
2018-05-15T16:43:56.451Z,73.60
2018-05-15T16:44:56.371Z,73.56
2018-05-15T16:45:56.310Z,74.81
2018-05-15T16:46:56.266Z,74.68
2018-05-15T16:47:56.191Z,75.06
2018-05-15T16:48:56.137Z,75.63
2018-05-15T16:49:56.077Z,75.50
2018-05-15T16:50:56.012Z,75.40
2018-05-15T16:51:55.954Z,75.70
2018-05-15T16:52:55.894Z,75.70
2018-05-15T16:53:55.837Z,75.70
2018-05-15T16:54:55.774Z,75.70
2018-05-15T16:55:55.714Z,75.82
2018-05-15T16:56:55.655Z,75.45
2018-05-15T16:57:55.600Z,75.54
2018-05-15T16:58:55.533Z,75.54
2018-05-15T16:59:55.495Z,75.54
2018-05-15T17:00:55.415Z,75.25
2018-05-15T17:01:55.364Z,75.54
2018-05-15T17:02:55.298Z,75.54
2018-05-15T17:03:55.237Z,75.45
2018-05-15T17:04:55.178Z,75.70
2018-05-15T17:05:55.118Z,76.07
2018-05-15T17:06:55.057Z,75.70
2018-05-15T17:07:55.007Z,76.37
2018-05-15T17:08:54.936Z,76.46
2018-05-15T17:09:54.874Z,76.84
2018-05-15T17:10:54.816Z,76.46
2018-05-15T17:11:54.755Z,77.58
2018-05-15T17:12:54.696Z,77.29
2018-05-15T17:13:54.638Z,77.29
2018-05-15T17:14:54.583Z,77.48
2018-05-15T17:15:54.524Z,77.38
2018-05-15T17:16:54.458Z,77.33
2018-05-15T17:17:54.405Z,77.67
2018-05-15T17:18:54.345Z,77.58
2018-05-15T17:19:54.286Z,77.67
2018-05-15T17:20:54.223Z,77.48
2018-05-15T17:21:54.163Z,77.48
2018-05-15T17:22:54.095Z,77.38
2018-05-15T17:23:54.037Z,77.33
2018-05-15T17:24:53.975Z,76.94
2018-05-15T17:25:53.931Z,76.56
2018-05-15T17:26:53.862Z,76.84
2018-05-15T17:27:53.799Z,76.84
2018-05-15T17:28:53.742Z,76.56
2018-05-15T17:29:53.678Z,76.40
2018-05-15T17:30:54.560Z,76.40
2018-05-15T17:31:53.558Z,76.07
2018-05-15T17:32:53.496Z,75.98
2018-05-15T17:33:53.438Z,76.37
2018-05-15T17:34:53.377Z,76.46
2018-05-15T17:35:53.318Z,76.84
2018-05-15T17:36:53.256Z,76.56
2018-05-15T17:37:53.198Z,76.56
2018-05-15T17:38:53.137Z,76.84
2018-05-15T17:39:53.076Z,76.56
2018-05-15T17:40:53.095Z,76.94
2018-05-15T17:41:52.958Z,77.61
2018-05-15T17:42:52.898Z,77.42
2018-05-15T17:43:52.834Z,76.84
2018-05-15T17:44:52.774Z,77.48
2018-05-15T17:45:52.716Z,77.86
2018-05-15T17:46:52.663Z,78.02
2018-05-15T17:47:53.568Z,77.92
2018-05-15T17:48:52.532Z,78.20
2018-05-15T17:49:52.470Z,78.59
2018-05-15T17:50:52.410Z,77.73
2018-05-15T17:51:52.355Z,77.82
2018-05-15T17:52:52.392Z,78.40
2018-05-15T17:53:52.236Z,78.20
2018-05-15T17:54:52.171Z,78.40
2018-05-15T17:55:52.118Z,78.36
2018-05-15T17:56:52.054Z,79.75
2018-05-15T17:57:51.992Z,82.06
2018-05-15T17:58:51.929Z,83.54
2018-05-15T17:59:51.881Z,84.88
2018-05-15T18:00:51.814Z,86.04
2018-05-15T18:01:51.771Z,86.90
2018-05-15T18:02:51.688Z,87.27
2018-05-15T18:03:51.625Z,88.23
2018-05-15T18:04:51.562Z,88.52
2018-05-15T18:05:51.508Z,88.90
2018-05-15T18:06:51.444Z,89.58
2018-05-15T18:07:51.383Z,90.24
2018-05-15T18:08:51.329Z,91.15
2018-05-15T18:09:51.258Z,90.67
2018-05-15T18:10:51.195Z,90.96
2018-05-15T18:11:51.142Z,91.92
2018-05-15T18:12:51.071Z,91.67
2018-05-15T18:13:51.009Z,92.11
2018-05-15T18:14:50.955Z,92.21
2018-05-15T18:15:50.890Z,92.87
2018-05-15T18:16:57.601Z,92.30
2018-05-15T18:17:50.763Z,93.35
2018-05-15T18:18:50.745Z,93.07
2018-05-15T18:19:50.648Z,94.50
2018-05-15T18:20:50.579Z,94.50
2018-05-15T18:21:50.596Z,94.31
2018-05-15T18:22:50.454Z,94.02
2018-05-15T18:23:50.397Z,94.21
2018-05-15T18:24:50.339Z,94.50
2018-05-15T18:25:50.272Z,94.89
2018-05-15T18:26:50.211Z,95.56
2018-05-15T18:27:50.148Z,95.65
2018-05-15T18:28:50.089Z,94.21
2018-05-15T18:29:50.031Z,94.69
2018-05-15T18:30:49.966Z,95.46
2018-05-15T18:31:49.905Z,95.75
2018-05-15T18:32:49.854Z,95.84
2018-05-15T18:33:49.780Z,95.75
2018-05-15T18:34:49.723Z,96.42
2018-05-15T18:35:49.658Z,96.37
2018-05-15T18:36:49.594Z,96.22
2018-05-15T18:37:49.538Z,96.03
2018-05-15T18:38:49.474Z,96.03
2018-05-15T18:39:49.410Z,95.94
2018-05-15T18:40:49.352Z,97.18
2018-05-15T18:41:49.289Z,97.18
2018-05-15T18:42:49.233Z,97.18
2018-05-15T18:43:49.176Z,96.22
2018-05-15T18:44:49.104Z,96.13
2018-05-15T18:45:49.041Z,95.79
2018-05-15T18:46:48.981Z,97.52
2018-05-15T18:47:48.922Z,97.23
2018-05-15T18:48:48.855Z,97.66
2018-05-15T18:49:48.801Z,97.90
2018-05-15T18:50:48.764Z,97.33
2018-05-15T18:51:48.679Z,98.14
2018-05-15T18:52:48.614Z,97.75
2018-05-15T18:53:48.550Z,98.05
2018-05-15T18:54:48.488Z,97.75
2018-05-15T18:55:48.429Z,97.75
2018-05-15T18:56:48.367Z,97.28
2018-05-15T18:57:48.303Z,97.85
2018-05-15T18:58:48.241Z,97.42
2018-05-15T18:59:48.181Z,97.90
2018-05-15T19:00:48.119Z,97.61
2018-05-15T19:01:48.064Z,97.80
2018-05-15T19:02:47.996Z,97.90
2018-05-15T19:03:47.939Z,98.09
2018-05-15T19:04:47.875Z,97.90
2018-05-15T19:05:47.811Z,98.66
2018-05-15T19:06:47.821Z,98.57
2018-05-15T19:07:47.683Z,98.81
2018-05-15T19:08:47.635Z,98.81
2018-05-15T19:09:47.563Z,98.14
2018-05-15T19:10:47.504Z,98.00
2018-05-15T19:11:47.444Z,98.28
2018-05-15T19:12:47.385Z,98.19
2018-05-15T19:13:47.328Z,97.90
2018-05-15T19:14:47.258Z,98.00
2018-05-15T19:15:47.196Z,97.52
2018-05-15T19:16:47.134Z,98.66
2018-05-15T19:17:47.072Z,98.00
2018-05-15T19:18:47.019Z,98.76
2018-05-15T19:19:46.946Z,99.15
2018-05-15T19:20:46.889Z,98.76
2018-05-15T19:21:46.840Z,99.33
2018-05-15T19:22:46.768Z,98.95
2018-05-15T19:23:46.703Z,98.57
2018-05-15T19:24:46.646Z,99.52
2018-05-15T19:25:47.089Z,98.95
2018-05-15T19:26:46.534Z,98.66
2018-05-15T19:27:46.455Z,98.09
2018-05-15T19:28:46.390Z,98.09
2018-05-15T19:29:46.350Z,98.28
2018-05-15T19:30:46.268Z,98.57
2018-05-15T19:31:46.207Z,98.95
2018-05-15T19:32:46.149Z,98.19
2018-05-15T19:33:46.192Z,98.38
2018-05-15T19:34:46.242Z,98.95
2018-05-15T19:35:45.979Z,99.33
2018-05-15T19:36:45.901Z,99.05
2018-05-15T19:37:45.836Z,99.24
2018-05-15T19:38:45.774Z,98.95
2018-05-15T19:39:45.763Z,98.95
2018-05-15T19:40:45.649Z,99.05
2018-05-15T19:41:45.587Z,98.76
2018-05-15T19:42:45.557Z,98.86
2018-05-15T19:43:45.461Z,98.76
2018-05-15T19:44:45.585Z,99.05
2018-05-15T19:45:45.345Z,99.62
2018-05-15T19:46:45.474Z,99.05
2018-05-15T19:47:45.222Z,99.33
2018-05-15T19:48:45.155Z,99.62
2018-05-15T19:49:45.095Z,99.24
2018-05-15T19:50:45.029Z,98.95
2018-05-15T19:51:45.281Z,99.05
2018-05-15T19:52:44.903Z,99.52
2018-05-15T19:53:44.887Z,99.15
2018-05-15T19:54:44.788Z,99.24
2018-05-15T19:55:44.891Z,99.33
2018-05-15T19:56:44.835Z,99.33
2018-05-15T19:57:44.803Z,99.43
2018-05-15T19:58:45.162Z,99.62
2018-05-15T19:59:46.765Z,99.43
2018-05-15T20:00:44.493Z,99.62
2018-05-15T20:01:44.427Z,99.24
2018-05-15T20:02:44.483Z,99.05
2018-05-15T20:03:44.220Z,99.72
2018-05-15T20:04:44.376Z,99.15
2018-05-15T20:05:44.298Z,99.24
2018-05-15T20:06:44.043Z,99.52
2018-05-15T20:07:44.191Z,98.95
2018-05-15T20:08:43.917Z,99.52
2018-05-15T20:09:43.863Z,99.33
2018-05-15T20:10:43.802Z,99.43
2018-05-15T20:11:43.727Z,99.52
2018-05-15T20:12:43.671Z,99.52
2018-05-15T20:13:43.604Z,99.48
2018-05-15T20:14:43.580Z,99.10
2018-05-15T20:15:43.483Z,99.00
2018-05-15T20:16:51.065Z,99.48
2018-05-15T20:18:37.827Z,99.99
2018-05-15T20:19:37.628Z,99.99
2018-05-15T20:21:30.950Z,99.24
2018-05-15T20:22:38.473Z,99.43
2018-05-15T20:24:25.282Z,99.81
2018-05-15T20:25:32.654Z,99.43
2018-05-15T20:27:19.327Z,99.24
2018-05-15T20:28:19.216Z,99.72
2018-05-15T20:30:12.626Z,99.99
2018-05-15T20:31:12.435Z,99.52
2018-05-15T20:32:12.376Z,99.15
2018-05-15T20:33:19.959Z,99.38
2018-05-15T20:35:15.281Z,99.96
2018-05-15T20:36:14.178Z,99.99
2018-05-15T20:38:08.558Z,99.99
2018-05-15T20:39:00.827Z,99.99
2018-05-15T20:40:55.130Z,99.48
2018-05-15T20:41:55.043Z,99.10
2018-05-15T20:43:49.387Z,99.67
2018-05-15T20:44:49.241Z,99.99
2018-05-15T20:46:43.536Z,99.99
2018-05-15T20:47:43.442Z,99.99
2018-05-15T20:49:37.810Z,99.99
2018-05-15T20:50:37.683Z,99.99
2018-05-15T20:51:37.604Z,99.99
2018-05-15T20:52:37.526Z,99.99
2018-05-15T20:53:37.466Z,99.99
2018-05-15T20:54:37.401Z,99.99
2018-05-15T20:55:37.341Z,99.99
2018-05-15T20:56:37.287Z,99.99
2018-05-15T20:57:37.218Z,99.99
2018-05-15T20:58:37.151Z,99.99
2018-05-15T20:59:37.090Z,99.99
2018-05-15T21:00:37.091Z,99.99
2018-05-15T21:01:36.967Z,99.99
2018-05-15T21:02:36.907Z,99.99
2018-05-15T21:03:36.843Z,99.99
2018-05-15T21:04:36.784Z,99.99
2018-05-15T21:05:36.727Z,99.99
2018-05-15T21:06:36.653Z,99.99
2018-05-15T21:07:36.590Z,99.99
2018-05-15T21:08:36.534Z,99.99
2018-05-15T21:09:36.468Z,99.99
2018-05-15T21:10:36.405Z,99.99
2018-05-15T21:11:36.341Z,99.99
2018-05-15T21:12:36.279Z,99.99
2018-05-15T21:13:36.219Z,99.99
2018-05-15T21:14:36.156Z,99.99
2018-05-15T21:15:36.095Z,99.99
2018-05-15T21:16:36.033Z,99.99
2018-05-15T21:17:35.967Z,99.99
2018-05-15T21:18:35.907Z,99.99
2018-05-15T21:19:35.842Z,99.99
2018-05-15T21:20:35.781Z,99.99
2018-05-15T21:21:35.721Z,99.99
2018-05-15T21:22:35.657Z,99.99
2018-05-15T21:23:35.596Z,99.99
2018-05-15T21:24:35.528Z,99.99
2018-05-15T21:25:35.481Z,99.99
2018-05-15T21:26:35.403Z,99.99
2018-05-15T21:27:35.356Z,99.99
2018-05-15T21:28:35.283Z,99.99
2018-05-15T21:29:35.222Z,99.99
2018-05-15T21:30:35.162Z,99.99
2018-05-15T21:31:35.093Z,99.99
2018-05-15T21:32:35.030Z,99.99
2018-05-15T21:33:34.968Z,99.99
2018-05-15T21:34:34.908Z,99.99
2018-05-15T21:35:34.846Z,99.99
2018-05-15T21:36:34.782Z,99.99
2018-05-15T21:37:34.719Z,99.99
2018-05-15T21:38:34.657Z,99.99
2018-05-15T21:39:34.595Z,99.99
2018-05-15T21:40:34.532Z,99.99
2018-05-15T21:41:34.471Z,99.99
2018-05-15T21:42:34.410Z,99.99
2018-05-15T21:43:34.343Z,99.99
2018-05-15T21:44:34.279Z,99.99
2018-05-15T21:45:34.218Z,99.99
2018-05-15T21:46:34.158Z,99.99
2018-05-15T21:47:34.097Z,99.99
2018-05-15T21:48:34.032Z,99.99
2018-05-15T21:49:33.971Z,99.99
2018-05-15T21:50:33.908Z,99.99
2018-05-15T21:51:33.843Z,99.99
2018-05-15T21:52:33.787Z,99.99
2018-05-15T21:53:33.720Z,99.99
2018-05-15T21:54:33.667Z,99.99
2018-05-15T21:55:33.592Z,99.99
2018-05-15T21:56:33.532Z,99.99
2018-05-15T21:57:33.468Z,99.99
2018-05-15T21:58:33.406Z,99.99
2018-05-15T21:59:33.342Z,99.99
2018-05-15T22:00:33.282Z,99.99
2018-05-15T22:01:33.220Z,99.99
2018-05-15T22:02:33.158Z,99.99
2018-05-15T22:03:33.098Z,99.99
2018-05-15T22:04:33.037Z,99.99
2018-05-15T22:05:32.968Z,99.99
2018-05-15T22:06:32.905Z,99.99
2018-05-15T22:07:32.843Z,99.99
2018-05-15T22:08:32.781Z,99.99
2018-05-15T22:09:32.718Z,99.99
2018-05-15T22:10:32.657Z,99.99
2018-05-15T22:11:32.595Z,99.99
2018-05-15T22:12:32.531Z,99.99
2018-05-15T22:13:32.468Z,99.99
2018-05-15T22:14:32.411Z,99.99
2018-05-15T22:15:32.343Z,99.99
2018-05-15T22:16:32.277Z,99.99
2018-05-15T22:17:32.227Z,99.99
2018-05-15T22:18:32.152Z,99.99
2018-05-15T22:19:32.095Z,99.99
2018-05-15T22:20:32.060Z,99.99
2018-05-15T22:21:31.968Z,99.99
2018-05-15T22:22:31.909Z,99.99
2018-05-15T22:23:31.839Z,99.99
2018-05-15T22:24:31.780Z,99.99
2018-05-15T22:25:31.718Z,99.99
2018-05-15T22:26:31.656Z,99.99
2018-05-15T22:27:31.593Z,99.99
2018-05-15T22:28:31.529Z,99.99
2018-05-15T22:29:31.465Z,99.99
2018-05-15T22:30:31.404Z,99.99
2018-05-15T22:31:31.344Z,99.99
2018-05-15T22:32:31.290Z,99.99
2018-05-15T22:33:31.220Z,99.99
2018-05-15T22:34:31.157Z,99.99
2018-05-15T22:35:31.089Z,99.99
2018-05-15T22:36:31.031Z,99.99
2018-05-15T22:37:30.964Z,99.99
2018-05-15T22:38:30.898Z,99.99
2018-05-15T22:39:30.845Z,99.99
2018-05-15T22:40:30.778Z,99.99
2018-05-15T22:41:30.726Z,99.99
2018-05-15T22:42:30.650Z,99.99
2018-05-15T22:43:30.591Z,99.99
2018-05-15T22:44:30.526Z,99.99
2018-05-15T22:45:30.462Z,99.99
2018-05-15T22:46:30.401Z,99.99
2018-05-15T22:47:30.339Z,99.99
2018-05-15T22:48:30.273Z,99.99
2018-05-15T22:49:30.211Z,99.99
2018-05-15T22:50:30.149Z,99.99
2018-05-15T22:51:30.093Z,99.99
2018-05-15T22:52:30.024Z,99.99
2018-05-15T22:53:29.964Z,99.99
2018-05-15T22:54:29.905Z,99.99
2018-05-15T22:55:29.836Z,99.99
2018-05-15T22:56:29.776Z,99.99
2018-05-15T22:57:29.712Z,99.99
2018-05-15T22:58:29.656Z,99.99
2018-05-15T22:59:29.585Z,99.99
2018-05-15T23:00:29.520Z,99.99
2018-05-15T23:01:29.460Z,99.99
2018-05-15T23:02:29.394Z,99.67
2018-05-15T23:03:29.338Z,99.99
2018-05-15T23:04:29.274Z,99.96
2018-05-15T23:05:29.217Z,99.38
2018-05-15T23:06:29.182Z,99.19
2018-05-15T23:07:29.083Z,99.19
2018-05-15T23:08:29.021Z,99.38
2018-05-15T23:09:28.958Z,99.29
2018-05-15T23:10:28.899Z,99.96
2018-05-15T23:11:28.835Z,99.57
2018-05-15T23:12:28.772Z,99.38
2018-05-15T23:13:28.708Z,99.57
2018-05-15T23:14:28.645Z,99.67
2018-05-15T23:15:28.585Z,98.81
2018-05-15T23:16:28.522Z,99.38
2018-05-15T23:17:28.465Z,99.29
2018-05-15T23:18:28.400Z,99.19
2018-05-15T23:19:28.335Z,98.90
2018-05-15T23:20:28.275Z,99.10
2018-05-15T23:21:28.215Z,99.10
2018-05-15T23:22:28.149Z,99.15
2018-05-15T23:23:28.083Z,99.24
2018-05-15T23:24:28.022Z,99.10
2018-05-15T23:25:27.960Z,98.81
2018-05-15T23:26:27.893Z,98.86
2018-05-15T23:27:27.836Z,98.95
2018-05-15T23:28:27.775Z,99.15
2018-05-15T23:29:27.708Z,99.10
2018-05-15T23:30:27.652Z,98.86
2018-05-15T23:31:27.584Z,98.19
2018-05-15T23:32:27.523Z,98.66
2018-05-15T23:33:27.460Z,98.76
2018-05-15T23:34:27.400Z,98.47
2018-05-15T23:35:27.335Z,98.04
2018-05-15T23:36:27.273Z,98.61
2018-05-15T23:37:27.211Z,98.24
2018-05-15T23:38:27.147Z,98.04
2018-05-15T23:39:27.089Z,98.04
2018-05-15T23:40:27.024Z,98.43
2018-05-15T23:41:26.960Z,98.57
2018-05-15T23:42:26.901Z,98.47
2018-05-15T23:43:26.834Z,98.19
2018-05-15T23:44:26.773Z,98.38
2018-05-15T23:45:26.720Z,98.28
2018-05-15T23:46:26.651Z,98.04
2018-05-15T23:47:26.584Z,98.52
2018-05-15T23:48:26.523Z,98.57
2018-05-15T23:49:26.465Z,97.52
2018-05-15T23:50:26.424Z,97.61
2018-05-15T23:51:26.335Z,97.42
2018-05-15T23:52:26.276Z,97.90
2018-05-15T23:53:26.213Z,97.71
2018-05-15T23:54:26.155Z,97.52
2018-05-15T23:55:26.094Z,97.71
2018-05-15T23:56:26.027Z,97.13
2018-05-15T23:57:25.962Z,97.13
2018-05-15T23:58:25.900Z,97.61
2018-05-15T23:59:25.841Z,97.13
